Time;durP1;ratioP1;P1;durP2;ratioP2;P2;SDS_P1;SDS_P2;PMS_P1;PMS_P2;Temp;Humidity;BMP_temperature;BMP_pressure;BME280_temperature;BME280_humidity;BME280_pressure;Samples;Min_cycle;Max_cycle;Signal;HPM_P1;HPM_P2
2022/11/23 00:02:10;;;;;;;15.07;4.55;;;;;;;;;;5232156;28;20022;-78
2022/11/23 00:04:41;;;;;;;21.20;5.83;;;;;;;;;;5225828;28;20080;-78
2022/11/23 00:07:12;;;;;;;17.02;4.97;;;;;;;;;;5242900;28;20285;-79
2022/11/23 00:09:44;;;;;;;18.80;5.20;;;;;;;;;;5238726;28;20061;-78
2022/11/23 00:12:15;;;;;;;15.75;4.82;;;;;;;;;;5240182;28;20084;-78
2022/11/23 00:14:46;;;;;;;16.05;4.80;;;;;;;;;;5240110;28;20061;-79
2022/11/23 00:17:17;;;;;;;13.50;4.57;;;;;;;;;;5241978;28;20493;-78
2022/11/23 00:19:48;;;;;;;16.50;5.45;;;;;;;;;;5221698;28;20352;-78
2022/11/23 00:22:20;;;;;;;15.50;4.95;;;;;;;;;;5241652;28;20049;-78
2022/11/23 00:24:51;;;;;;;14.80;4.55;;;;;;;;;;5238936;28;20026;-78
2022/11/23 00:27:22;;;;;;;15.27;4.32;;;;;;;;;;5241439;28;20065;-78
2022/11/23 00:29:54;;;;;;;13.70;3.65;;;;;;;;;;5221710;28;20445;-78
2022/11/23 00:32:27;;;;;;;16.02;3.97;;;;;;;;;;5256125;28;20026;-78
2022/11/23 00:34:58;;;;;;;12.07;3.83;;;;;;;;;;5235194;28;20036;-78
2022/11/23 00:37:30;;;;;;;14.07;3.53;;;;;;;;;;5241448;28;20025;-78
2022/11/23 00:40:01;;;;;;;13.40;3.95;;;;;;;;;;5237963;28;20030;-78
2022/11/23 00:42:32;;;;;;;11.63;3.80;;;;;;;;;;5232003;28;20121;-78
2022/11/23 00:45:03;;;;;;;12.98;3.30;;;;;;;;;;5222045;28;20253;-76
2022/11/23 00:47:35;;;;;;;12.80;3.25;;;;;;;;;;5223102;28;20041;-76
2022/11/23 00:50:06;;;;;;;17.50;3.55;;;;;;;;;;5238978;28;20034;-76
2022/11/23 00:52:37;;;;;;;14.65;3.47;;;;;;;;;;5241500;28;20033;-77
2022/11/23 00:55:09;;;;;;;14.13;3.28;;;;;;;;;;5239066;28;20033;-77
2022/11/23 00:57:40;;;;;;;15.25;3.53;;;;;;;;;;5239788;28;20034;-77
2022/11/23 01:00:11;;;;;;;16.67;3.38;;;;;;;;;;5239954;28;20033;-76
2022/11/23 01:02:42;;;;;;;12.23;3.25;;;;;;;;;;5238346;28;20043;-76
2022/11/23 01:05:14;;;;;;;13.65;3.35;;;;;;;;;;5240349;28;20045;-76
2022/11/23 01:07:45;;;;;;;11.60;3.13;;;;;;;;;;5240761;28;20096;-76
2022/11/23 01:10:16;;;;;;;10.37;3.10;;;;;;;;;;5221768;28;20038;-77
2022/11/23 01:12:47;;;;;;;10.10;2.83;;;;;;;;;;5241097;28;20766;-76
2022/11/23 01:15:18;;;;;;;12.40;3.28;;;;;;;;;;5222194;28;20240;-76
2022/11/23 01:17:50;;;;;;;13.35;3.20;;;;;;;;;;5240910;28;20022;-76
2022/11/23 01:20:21;;;;;;;18.67;3.55;;;;;;;;;;5238030;28;20832;-76
2022/11/23 01:22:52;;;;;;;10.80;2.83;;;;;;;;;;5242811;28;20426;-76
2022/11/23 01:25:23;;;;;;;13.38;3.60;;;;;;;;;;5233940;28;20046;-76
2022/11/23 01:27:55;;;;;;;13.95;3.58;;;;;;;;;;5244528;28;20022;-76
2022/11/23 01:30:26;;;;;;;12.47;2.80;;;;;;;;;;5241269;28;20350;-76
2022/11/23 01:32:57;;;;;;;14.45;3.42;;;;;;;;;;5241023;28;20340;-76
2022/11/23 01:35:28;;;;;;;10.60;3.53;;;;;;;;;;5243284;28;20030;-76
2022/11/23 01:38:00;;;;;;;14.52;3.17;;;;;;;;;;5244792;28;20018;-77
2022/11/23 01:40:38;;;;;;;11.15;3.47;;;;;;;;;;5242116;28;20119;-76
2022/11/23 01:43:12;;;;;;;10.50;2.90;;;;;;;;;;5226285;28;20066;-76
2022/11/23 01:45:54;;;;;;;11.13;2.60;;;;;;;;;;5241463;28;20089;-76
2022/11/23 01:48:29;;;;;;;10.05;2.47;;;;;;;;;;5244748;28;20018;-77
2022/11/23 01:51:02;;;;;;;12.07;2.50;;;;;;;;;;5241830;28;20034;-77
2022/11/23 01:53:33;;;;;;;17.23;2.90;;;;;;;;;;5244252;28;20026;-77
2022/11/23 01:56:05;;;;;;;11.00;2.53;;;;;;;;;;5243533;28;20037;-77
2022/11/23 01:58:38;;;;;;;11.25;2.63;;;;;;;;;;5243789;28;20479;-78
2022/11/23 02:01:10;;;;;;;13.55;3.08;;;;;;;;;;5238835;28;20503;-78
2022/11/23 02:03:42;;;;;;;9.07;2.58;;;;;;;;;;5235690;28;20117;-78
2022/11/23 02:06:16;;;;;;;10.65;2.28;;;;;;;;;;5233626;28;20498;-77
2022/11/23 02:08:47;;;;;;;7.85;2.00;;;;;;;;;;5240966;28;20084;-77
2022/11/23 02:11:19;;;;;;;9.82;2.40;;;;;;;;;;5242395;28;20018;-77
2022/11/23 02:13:50;;;;;;;10.75;2.53;;;;;;;;;;5243784;28;20022;-77
2022/11/23 02:16:21;;;;;;;11.38;2.58;;;;;;;;;;5242878;28;20030;-77
2022/11/23 02:18:53;;;;;;;15.18;2.85;;;;;;;;;;5242106;28;20042;-78
2022/11/23 02:21:24;;;;;;;11.93;2.42;;;;;;;;;;5239793;28;20467;-77
2022/11/23 02:24:02;;;;;;;10.07;2.83;;;;;;;;;;5243578;28;20038;-77
2022/11/23 02:26:34;;;;;;;9.13;2.40;;;;;;;;;;5242703;28;20113;-77
2022/11/23 02:29:14;;;;;;;11.85;2.25;;;;;;;;;;5243090;28;20446;-78
2022/11/23 02:31:45;;;;;;;9.63;2.30;;;;;;;;;;5241704;28;20370;-78
2022/11/23 02:34:17;;;;;;;13.15;2.50;;;;;;;;;;5242358;28;20038;-78
2022/11/23 02:36:50;;;;;;;12.93;3.67;;;;;;;;;;5242152;28;20375;-78
2022/11/23 02:39:30;;;;;;;11.38;2.28;;;;;;;;;;5242510;28;20029;-78
2022/11/23 02:42:01;;;;;;;12.88;2.83;;;;;;;;;;5239881;28;20040;-78
2022/11/23 02:44:37;;;;;;;11.90;3.05;;;;;;;;;;5242415;28;20387;-78
2022/11/23 02:47:09;;;;;;;12.25;2.95;;;;;;;;;;5224896;28;20030;-78
2022/11/23 02:49:41;;;;;;;10.10;2.42;;;;;;;;;;5224001;28;20045;-78
2022/11/23 02:52:13;;;;;;;18.42;3.90;;;;;;;;;;5240711;28;20387;-78
2022/11/23 02:54:44;;;;;;;15.90;3.42;;;;;;;;;;5243177;28;20037;-78
2022/11/23 02:57:16;;;;;;;10.20;2.90;;;;;;;;;;5242326;28;20411;-79
2022/11/23 02:59:47;;;;;;;9.07;2.50;;;;;;;;;;5242671;28;20028;-78
2022/11/23 03:02:18;;;;;;;13.55;3.47;;;;;;;;;;5245265;28;20485;-78
2022/11/23 03:04:49;;;;;;;15.77;3.38;;;;;;;;;;5225160;28;20030;-78
2022/11/23 03:07:21;;;;;;;14.25;3.17;;;;;;;;;;5242529;28;20025;-77
2022/11/23 03:09:52;;;;;;;13.55;3.28;;;;;;;;;;5241314;28;20037;-77
2022/11/23 03:12:23;;;;;;;14.25;3.20;;;;;;;;;;5241319;28;20030;-77
2022/11/23 03:14:54;;;;;;;15.80;2.60;;;;;;;;;;5241304;28;20014;-77
2022/11/23 03:17:26;;;;;;;11.88;3.10;;;;;;;;;;5242293;28;20426;-77
2022/11/23 03:19:58;;;;;;;17.77;3.60;;;;;;;;;;5240638;28;20026;-77
2022/11/23 03:22:29;;;;;;;13.07;3.22;;;;;;;;;;5239926;28;20364;-77
2022/11/23 03:25:00;;;;;;;13.17;2.70;;;;;;;;;;5224601;28;20080;-77
2022/11/23 03:27:32;;;;;;;15.67;3.30;;;;;;;;;;5231148;28;20277;-77
2022/11/23 03:30:04;;;;;;;9.52;2.75;;;;;;;;;;5240691;28;20622;-77
2022/11/23 03:32:35;;;;;;;17.13;4.25;;;;;;;;;;5234184;28;20017;-77
2022/11/23 03:35:07;;;;;;;16.05;4.40;;;;;;;;;;5239004;28;20446;-77
2022/11/23 03:37:41;;;;;;;15.70;3.03;;;;;;;;;;5241213;28;20030;-77
2022/11/23 03:40:12;;;;;;;14.77;3.53;;;;;;;;;;5241133;28;20037;-77
2022/11/23 03:42:44;;;;;;;15.65;3.10;;;;;;;;;;5241608;28;20040;-77
2022/11/23 03:45:15;;;;;;;14.50;2.92;;;;;;;;;;5240360;28;20034;-77
2022/11/23 03:47:46;;;;;;;12.95;2.80;;;;;;;;;;5241199;28;20422;-77
2022/11/23 03:50:18;;;;;;;16.17;3.22;;;;;;;;;;5240609;28;20068;-77
2022/11/23 03:52:49;;;;;;;11.68;2.80;;;;;;;;;;5239880;28;20072;-77
2022/11/23 03:55:20;;;;;;;10.43;2.85;;;;;;;;;;5224406;28;20060;-77
2022/11/23 03:57:54;;;;;;;14.15;2.63;;;;;;;;;;5240909;28;20399;-77
2022/11/23 04:00:29;;;;;;;12.70;3.05;;;;;;;;;;5243941;28;20360;-77
2022/11/23 04:03:00;;;;;;;14.52;3.33;;;;;;;;;;5240193;28;20033;-77
2022/11/23 04:05:40;;;;;;;10.40;2.92;;;;;;;7.94;100.00;99612.81;5382805;27;20877;-77
2022/11/23 04:08:12;;;;;;;15.98;3.00;;;;;;;7.99;100.00;99612.34;5356254;27;20063;-77
2022/11/23 04:10:43;;;;;;;11.10;2.70;;;;;;;7.99;100.00;99617.66;5363675;27;20088;-77
2022/11/23 04:13:15;;;;;;;13.48;2.72;;;;;;;8.07;100.00;99636.31;5354346;27;20020;-77
2022/11/23 04:15:46;;;;;;;15.40;3.00;;;;;;;8.09;100.00;99627.19;5332362;27;20054;-77
2022/11/23 04:18:17;;;;;;;12.85;2.70;;;;;;;8.00;100.00;99619.34;5364823;27;20020;-77
2022/11/23 04:20:49;;;;;;;11.35;2.50;;;;;;;8.03;100.00;99619.88;5364377;27;20012;-77
2022/11/23 04:23:20;;;;;;;14.43;2.70;;;;;;;8.04;100.00;99626.81;5362800;27;20569;-77
2022/11/23 04:25:51;;;;;;;17.27;3.47;;;;;;;8.06;100.00;99626.69;5363943;27;20015;-77
2022/11/23 04:28:23;;;;;;;17.42;3.22;;;;;;;8.01;100.00;99613.88;5363495;27;20027;-77
2022/11/23 04:30:54;;;;;;;13.63;2.67;;;;;;;8.06;100.00;99616.88;5375790;27;20155;-77
2022/11/23 04:33:26;;;;;;;18.23;3.17;;;;;;;7.98;100.00;99610.69;5345747;27;20020;-77
2022/11/23 04:35:57;;;;;;;13.43;3.28;;;;;;;7.98;100.00;99616.84;5343409;27;20434;-77
2022/11/23 04:38:29;;;;;;;10.15;3.13;;;;;;;7.97;100.00;99611.69;5347393;27;20077;-77
2022/11/23 04:41:00;;;;;;;8.55;2.30;;;;;;;7.95;100.00;99622.47;5357890;27;20038;-77
2022/11/23 04:43:31;;;;;;;13.70;3.25;;;;;;;7.86;100.00;99615.44;5358168;27;20043;-77
2022/11/23 04:46:03;;;;;;;12.38;2.67;;;;;;;7.87;100.00;99619.72;5364169;27;20031;-77
2022/11/23 04:48:34;;;;;;;14.63;5.18;;;;;;;7.87;100.00;99622.38;5367872;27;20404;-77
2022/11/23 04:51:06;;;;;;;17.52;3.00;;;;;;;7.86;100.00;99621.56;5363316;27;20020;-77
2022/11/23 04:53:37;;;;;;;14.80;3.35;;;;;;;7.75;100.00;99613.84;5362338;27;20592;-77
2022/11/23 04:56:08;;;;;;;13.90;2.88;;;;;;;7.73;100.00;99632.59;5364446;27;20111;-77
2022/11/23 04:58:40;;;;;;;11.63;3.15;;;;;;;7.53;100.00;99623.94;5369929;27;20054;-77
2022/11/23 05:01:12;;;;;;;17.55;3.20;;;;;;;7.47;100.00;99624.56;5362717;27;20023;-77
2022/11/23 05:03:43;;;;;;;11.85;2.50;;;;;;;7.34;100.00;99622.28;5357472;27;20055;-79
2022/11/23 05:06:14;;;;;;;15.73;3.25;;;;;;;7.32;100.00;99615.47;5342921;27;20031;-77
2022/11/23 05:08:46;;;;;;;15.68;2.75;;;;;;;7.31;100.00;99622.59;5348861;27;20023;-77
2022/11/23 05:11:18;;;;;;;16.10;2.80;;;;;;;7.24;100.00;99618.88;5341871;27;20051;-77
2022/11/23 05:13:50;;;;;;;15.27;3.35;;;;;;;7.23;100.00;99616.38;5340291;27;20019;-77
2022/11/23 05:16:21;;;;;;;11.75;2.97;;;;;;;7.16;100.00;99606.38;5331939;27;20453;-77
2022/11/23 05:18:52;;;;;;;18.92;3.47;;;;;;;7.25;100.00;99609.09;5334845;27;20585;-76
2022/11/23 05:21:24;;;;;;;16.48;3.67;;;;;;;7.14;100.00;99602.22;5349589;27;20034;-76
2022/11/23 05:23:55;;;;;;;20.42;4.22;;;;;;;7.19;100.00;99599.94;5310860;28;20080;-77
2022/11/23 05:26:27;;;;;;;21.95;3.03;;;;;;;7.28;100.00;99620.25;5327747;28;20032;-77
2022/11/23 05:28:58;;;;;;;15.40;3.08;;;;;;;7.23;100.00;99619.84;5335189;27;20111;-77
2022/11/23 05:31:29;;;;;;;11.77;2.92;;;;;;;7.28;100.00;99614.94;5328539;28;20478;-77
2022/11/23 05:34:03;;;;;;;15.50;3.38;;;;;;;7.28;100.00;99609.63;5321852;28;20070;-77
2022/11/23 05:36:34;;;;;;;17.58;3.85;;;;;;;7.26;100.00;99624.88;5306795;28;20028;-78
2022/11/23 05:39:09;;;;;;;23.13;3.63;;;;;;;7.26;100.00;99616.91;5335406;27;20028;-78
2022/11/23 05:41:40;;;;;;;16.77;3.72;;;;;;;7.15;100.00;99607.38;5329583;28;20020;-79
2022/11/23 05:44:11;;;;;;;20.17;3.80;;;;;;;7.28;100.00;99622.91;5326306;28;20035;-78
2022/11/23 05:46:43;;;;;;;13.82;3.20;;;;;;;7.25;100.00;99617.88;5328379;28;20055;-76
2022/11/23 05:49:14;;;;;;;21.50;3.92;;;;;;;7.23;100.00;99627.00;5336352;27;20055;-76
2022/11/23 05:51:45;;;;;;;16.77;3.63;;;;;;;7.24;100.00;99618.03;5326732;27;20024;-77
2022/11/23 05:54:20;;;;;;;20.63;3.92;;;;;;;7.19;100.00;99627.28;5327469;27;20027;-75
2022/11/23 05:56:51;;;;;;;21.05;3.78;;;;;;;7.11;100.00;99616.59;5330425;27;20380;-77
2022/11/23 05:59:23;;;;;;;17.45;3.30;;;;;;;7.09;100.00;99628.34;5336019;27;20036;-77
2022/11/23 06:01:54;;;;;;;15.88;3.25;;;;;;;6.96;100.00;99597.72;5327775;28;20046;-77
2022/11/23 06:04:25;;;;;;;18.35;3.95;;;;;;;7.13;100.00;99629.69;5335524;27;20058;-77
2022/11/23 06:06:59;;;;;;;15.93;3.60;;;;;;;7.14;100.00;99626.06;5358497;27;20072;-77
2022/11/23 06:09:31;;;;;;;19.00;4.07;;;;;;;7.23;100.00;99638.44;5356249;27;20122;-77
2022/11/23 06:12:02;;;;;;;19.27;3.65;;;;;;;7.22;100.00;99623.47;5348558;27;20475;-77
2022/11/23 06:14:34;;;;;;;19.40;3.72;;;;;;;7.21;100.00;99623.66;5332513;27;20032;-77
2022/11/23 06:17:05;;;;;;;16.58;3.10;;;;;;;7.27;100.00;99628.34;5347596;27;20039;-77
2022/11/23 06:19:39;;;;;;;17.15;4.80;;;;;;;7.20;100.00;99614.84;5345432;27;20031;-77
2022/11/23 06:22:10;;;;;;;16.42;3.72;;;;;;;7.33;100.00;99633.06;5346991;27;20421;-77
2022/11/23 06:24:42;;;;;;;20.05;3.60;;;;;;;7.33;100.00;99639.19;5347864;27;20077;-77
2022/11/23 06:27:16;;;;;;;19.83;3.55;;;;;;;7.30;100.00;99634.19;5345662;27;20105;-77
2022/11/23 06:29:47;;;;;;;19.38;4.72;;;;;;;7.21;100.00;99627.13;5348270;27;20091;-77
2022/11/23 06:32:19;;;;;;;23.67;4.25;;;;;;;7.30;100.00;99642.13;5341971;27;21094;-77
2022/11/23 06:34:50;;;;;;;17.75;3.20;;;;;;;7.27;100.00;99636.31;5340546;27;20023;-77
2022/11/23 06:37:22;;;;;;;24.73;4.15;;;;;;;7.29;100.00;99639.63;5342529;27;20016;-77
2022/11/23 06:39:53;;;;;;;19.88;3.65;;;;;;;7.29;100.00;99635.19;5342931;27;20068;-77
2022/11/23 06:42:25;;;;;;;20.95;4.28;;;;;;;7.32;100.00;99634.88;5340599;27;20031;-77
2022/11/23 06:44:56;;;;;;;12.95;3.50;;;;;;;7.35;100.00;99645.19;5340506;27;20082;-77
2022/11/23 06:47:28;;;;;;;14.95;4.10;;;;;;;7.38;100.00;99644.03;5339526;27;20532;-77
2022/11/23 06:49:59;;;;;;;24.02;4.68;;;;;;;7.26;100.00;99638.13;5343126;27;20364;-78
2022/11/23 06:52:31;;;;;;;15.10;3.50;;;;;;;7.32;100.00;99645.47;5341647;27;20016;-77
2022/11/23 06:55:02;;;;;;;15.45;2.90;;;;;;;7.34;100.00;99647.97;5342170;27;20030;-78
2022/11/23 06:57:33;;;;;;;12.75;3.38;;;;;;;7.34;100.00;99651.47;5341058;27;20047;-78
2022/11/23 07:00:06;;;;;;;18.23;3.58;;;;;;;7.31;100.00;99666.84;5336035;27;20072;-78
2022/11/23 07:02:37;;;;;;;17.00;3.95;;;;;;;7.24;100.00;99653.38;5342985;27;20039;-78
2022/11/23 07:05:09;;;;;;;16.33;3.97;;;;;;;7.21;100.00;99658.13;5345016;27;20420;-78
2022/11/23 07:07:40;;;;;;;12.45;2.70;;;;;;;7.16;100.00;99667.34;5348103;27;20024;-78
2022/11/23 07:10:12;;;;;;;20.65;4.03;;;;;;;7.13;100.00;99672.13;5368896;27;20094;-77
2022/11/23 07:12:44;;;;;;;16.73;3.83;;;;;;;7.11;100.00;99674.91;5349637;27;20031;-77
2022/11/23 07:15:15;;;;;;;18.52;4.00;;;;;;;7.12;100.00;99678.44;5350672;27;20023;-78
2022/11/23 07:17:49;;;;;;;17.02;3.53;;;;;;;7.09;100.00;99679.53;5359592;27;20077;-78
2022/11/23 07:20:21;;;;;;;15.60;3.30;;;;;;;7.01;100.00;99676.78;5341617;27;20081;-77
2022/11/23 07:23:04;;;;;;;19.30;3.63;;;;;;;6.94;100.00;99687.19;5345650;27;20023;-78
2022/11/23 07:25:37;;;;;;;15.57;3.65;;;;;;;6.88;100.00;99695.69;5333403;27;20555;-78
2022/11/23 07:28:12;;;;;;;19.27;3.50;;;;;;;6.78;100.00;99681.66;5347267;27;20032;-78
2022/11/23 07:30:43;;;;;;;14.40;4.07;;;;;;;6.75;100.00;99687.25;5346913;27;20077;-78
2022/11/23 07:33:15;;;;;;;17.58;3.60;;;;;;;6.78;100.00;99686.94;5346555;27;20031;-78
2022/11/23 07:35:47;;;;;;;13.07;2.75;;;;;;;6.74;100.00;99688.22;5346210;27;20119;-77
2022/11/23 07:38:18;;;;;;;14.60;3.42;;;;;;;6.66;100.00;99688.94;5347121;27;20364;-78
2022/11/23 07:40:50;;;;;;;18.33;3.78;;;;;;;6.74;100.00;99707.63;5346682;27;20034;-78
2022/11/23 07:43:21;;;;;;;17.80;3.47;;;;;;;6.65;100.00;99697.91;5347609;27;20486;-78
2022/11/23 07:45:55;;;;;;;15.48;2.65;;;;;;;6.69;100.00;99701.91;5347457;27;20430;-78
2022/11/23 07:48:26;;;;;;;17.02;3.30;;;;;;;6.77;100.00;99707.34;5345826;27;20430;-78
2022/11/23 07:50:58;;;;;;;14.02;3.15;;;;;;;6.99;100.00;99718.53;5347321;27;20024;-78
2022/11/23 07:53:29;;;;;;;16.85;2.97;;;;;;;6.96;100.00;99722.31;5345260;27;20102;-79
2022/11/23 07:56:01;;;;;;;15.13;3.05;;;;;;;6.91;100.00;99721.94;5346433;27;20018;-77
2022/11/23 07:58:33;;;;;;;12.50;2.85;;;;;;;6.86;100.00;99726.81;5347444;27;20062;-78
2022/11/23 08:01:05;;;;;;;14.70;3.13;;;;;;;6.90;100.00;99728.19;5346925;27;20019;-78
2022/11/23 08:03:36;;;;;;;14.88;3.05;;;;;;;6.88;100.00;99731.97;5342583;27;20634;-78
2022/11/23 08:06:11;;;;;;;12.43;2.83;;;;;;;6.93;100.00;99730.56;5307186;28;20024;-78
2022/11/23 08:08:43;;;;;;;14.05;2.53;;;;;;;6.92;100.00;99734.19;5323825;28;20031;-78
2022/11/23 08:11:17;;;;;;;14.10;3.50;;;;;;;6.90;100.00;99728.19;5335745;27;20476;-78
2022/11/23 08:13:48;;;;;;;15.75;3.40;;;;;;;6.92;100.00;99734.19;5316302;28;20032;-78
2022/11/23 08:16:20;;;;;;;14.25;3.33;;;;;;;6.94;100.00;99726.94;5324767;28;20031;-78
2022/11/23 08:18:51;;;;;;;17.15;3.03;;;;;;;6.96;100.00;99730.28;5320941;28;20024;-78
2022/11/23 08:21:22;;;;;;;18.30;3.58;;;;;;;6.95;100.00;99730.41;5315573;28;20488;-78
2022/11/23 08:23:54;;;;;;;13.93;3.50;;;;;;;6.95;100.00;99736.56;5305236;28;20032;-78
2022/11/23 08:26:25;;;;;;;16.83;3.58;;;;;;;7.03;100.00;99724.38;5322209;28;20036;-76
2022/11/23 08:28:59;;;;;;;16.90;3.20;;;;;;;7.03;100.00;99725.22;5317093;28;20052;-77
2022/11/23 08:31:31;;;;;;;12.50;3.42;;;;;;;7.08;100.00;99738.03;5316631;28;37367;-76
2022/11/23 08:34:02;;;;;;;15.82;3.45;;;;;;;7.08;100.00;99730.94;5298936;28;20016;-77
2022/11/23 08:36:34;;;;;;;10.88;2.67;;;;;;;7.14;100.00;99750.72;5322019;27;20078;-78
2022/11/23 08:39:06;;;;;;;12.48;3.05;;;;;;;7.11;100.00;99722.66;5321649;28;20027;-78
2022/11/23 08:41:37;;;;;;;20.10;4.03;;;;;;;7.20;100.00;99734.19;5313571;28;20063;-78
2022/11/23 08:44:10;;;;;;;15.25;3.40;;;;;;;7.18;100.00;99741.47;5314154;28;20439;-78
2022/11/23 08:46:41;;;;;;;13.88;3.70;;;;;;;7.30;100.00;99744.78;5314785;28;20032;-77
2022/11/23 08:49:13;;;;;;;21.95;3.55;;;;;;;7.33;100.00;99734.69;5311655;28;20047;-77
2022/11/23 08:51:45;;;;;;;14.45;4.22;;;;;;;7.37;100.00;99740.53;5315032;28;20035;-77
2022/11/23 08:54:16;;;;;;;16.45;4.72;;;;;;;7.42;100.00;99732.97;5316651;28;20029;-76
2022/11/23 08:56:48;;;;;;;13.50;3.00;;;;;;;7.45;100.00;99734.47;5319961;28;20383;-77
2022/11/23 08:59:19;;;;;;;17.83;3.92;;;;;;;7.46;100.00;99725.53;5309104;28;20025;-77
2022/11/23 09:01:51;;;;;;;15.80;2.80;;;;;;;7.50;100.00;99726.91;5318937;28;20066;-77
2022/11/23 09:04:22;;;;;;;15.85;3.85;;;;;;;7.45;100.00;99718.56;5319208;27;20051;-77
2022/11/23 09:06:53;;;;;;;13.82;3.17;;;;;;;7.52;100.00;99724.94;5320713;28;20031;-78
2022/11/23 09:09:25;;;;;;;12.98;3.63;;;;;;;7.54;100.00;99715.03;5317314;28;20020;-78
2022/11/23 09:11:56;;;;;;;19.33;4.18;;;;;;;7.56;100.00;99723.66;5326092;28;20059;-76
2022/11/23 09:14:28;;;;;;;16.23;3.40;;;;;;;7.58;100.00;99719.03;5320579;28;20454;-78
2022/11/23 09:17:00;;;;;;;14.52;3.00;;;;;;;7.65;100.00;99727.25;5310470;28;20020;-78
2022/11/23 09:19:32;;;;;;;9.52;2.78;;;;;;;7.66;100.00;99728.88;5326511;28;20046;-77
2022/11/23 09:22:03;;;;;;;13.98;2.70;;;;;;;7.65;100.00;99706.00;5324886;28;20110;-78
2022/11/23 09:24:35;;;;;;;18.83;3.17;;;;;;;7.72;100.00;99715.03;5318023;28;20141;-78
2022/11/23 09:27:06;;;;;;;11.52;2.92;;;;;;;7.72;100.00;99715.03;5315216;28;20124;-77
2022/11/23 09:29:38;;;;;;;14.07;3.15;;;;;;;7.69;100.00;99694.91;5318624;28;20163;-79
2022/11/23 09:32:10;;;;;;;13.10;2.47;;;;;;;7.84;100.00;99708.50;5319735;28;20036;-79
2022/11/23 09:34:41;;;;;;;16.35;2.88;;;;;;;7.85;100.00;99698.72;5325605;27;20789;-78
2022/11/23 09:37:13;;;;;;;11.15;2.53;;;;;;;7.84;100.00;99695.22;5325430;28;20039;-78
2022/11/23 09:39:47;;;;;;;16.40;2.80;;;;;;;7.95;100.00;99705.59;5319573;27;20027;-78
2022/11/23 09:42:32;;;;;;;11.32;2.53;;;;;;;8.02;100.00;99694.38;5322346;28;20093;-77
2022/11/23 09:45:19;;;;;;;15.90;3.13;;;;;;;8.01;100.00;99712.13;5316490;27;20043;-78
2022/11/23 09:48:12;;;;;;;13.43;3.72;;;;;;;7.99;100.00;99684.88;5315039;27;20024;-76
2022/11/23 09:50:49;;;;;;;12.10;3.25;;;;;;;8.04;100.00;99677.28;5328849;27;20102;-79
2022/11/23 09:53:34;;;;;;;7.50;2.35;;;;;;;8.01;100.00;99669.66;5327146;28;20028;-78
2022/11/23 09:56:20;;;;;;;17.23;3.25;;;;;;;8.06;100.00;99653.22;5309727;28;20122;-78
2022/11/23 09:58:54;;;;;;;12.07;3.25;;;;;;;8.19;100.00;99669.59;5308592;28;20023;-78
2022/11/23 10:01:30;;;;;;;12.18;2.65;;;;;;;8.09;100.00;99656.41;5327553;27;20487;-79
2022/11/23 10:04:03;;;;;;;10.52;2.83;;;;;;;8.32;100.00;99659.38;5326609;27;20122;-79
2022/11/23 10:06:39;;;;;;;10.77;2.75;;;;;;;8.33;100.00;99658.41;5327832;28;20430;-78
2022/11/23 10:09:23;;;;;;;8.55;2.70;;;;;;;8.39;100.00;99648.97;5326421;28;20020;-77
2022/11/23 10:12:13;;;;;;;11.60;3.15;;;;;;;8.49;100.00;99662.19;5326252;28;20027;-77
2022/11/23 10:14:53;;;;;;;16.13;2.58;;;;;;;8.61;100.00;99644.16;5288101;28;20032;-78
2022/11/23 10:17:27;;;;;;;13.50;2.47;;;;;;;8.63;100.00;99655.44;5307355;28;20059;-79
2022/11/23 10:20:26;;;;;;;8.30;2.25;;;;;;;8.77;100.00;99657.50;5307494;28;20087;-79
2022/11/23 10:22:59;;;;;;;14.00;2.92;;;;;;;8.80;100.00;99657.19;5326186;28;20032;-77
2022/11/23 10:25:45;;;;;;;9.68;1.88;;;;;;;8.92;100.00;99641.75;5328792;28;20468;-77
2022/11/23 10:28:19;;;;;;;9.45;2.75;;;;;;;9.06;100.00;99656.25;5327639;28;20036;-77
2022/11/23 10:31:04;;;;;;;8.25;2.35;;;;;;;9.18;100.00;99656.81;5308973;28;20020;-77
2022/11/23 10:34:03;;;;;;;10.38;1.88;;;;;;;9.36;100.00;99646.03;5327361;28;20377;-77
2022/11/23 10:36:38;;;;;;;10.13;2.45;;;;;;;9.63;100.00;99663.53;5326628;28;20477;-79
2022/11/23 10:39:17;;;;;;;7.65;2.20;;;;;;;9.98;100.00;99640.25;5326979;27;20023;-77
2022/11/23 10:41:56;;;;;;;8.05;1.75;;;;;;;10.86;100.00;99649.22;5327274;27;20028;-76
2022/11/23 10:44:31;;;;;;;8.18;1.90;;;;;;;12.11;100.00;99627.66;5326517;27;20119;-76
2022/11/23 10:47:03;;;;;;;9.48;1.60;;;;;;;13.26;100.00;99622.81;5325196;28;20430;-77
2022/11/23 10:49:34;;;;;;;7.68;2.03;;;;;;;13.42;100.00;99642.16;5326844;27;20024;-79
2022/11/23 10:52:30;;;;;;;7.78;1.98;;;;;;;12.57;100.00;99640.91;5314933;27;20029;-77
2022/11/23 10:55:05;;;;;;;8.80;1.88;;;;;;;12.05;100.00;99631.91;5286733;28;20482;-77
2022/11/23 10:57:44;;;;;;;7.93;2.47;;;;;;;11.34;100.00;99621.44;5305479;28;20031;-78
2022/11/23 11:00:18;;;;;;;8.27;1.83;;;;;;;11.50;100.00;99600.94;5291268;28;20471;-78
2022/11/23 11:02:53;;;;;;;7.78;1.92;;;;;;;12.86;100.00;99620.47;5326592;28;20028;-78
2022/11/23 11:05:27;;;;;;;6.65;2.03;;;;;;;14.39;100.00;99613.03;5342204;27;20052;-76
2022/11/23 11:08:12;;;;;;;5.95;1.58;;;;;;;15.22;100.00;99601.47;5347749;27;20055;-79
2022/11/23 11:10:55;;;;;;;9.75;2.22;;;;;;;15.78;100.00;99603.84;5347712;27;20030;-77
2022/11/23 11:13:50;;;;;;;7.63;2.47;;;;;;;15.58;100.00;99602.97;5347250;27;20497;-78
2022/11/23 11:16:29;;;;;;;5.15;1.70;;;;;;;14.60;100.00;99598.72;5345976;27;20509;-77
2022/11/23 11:19:21;;;;;;;8.10;2.50;;;;;;;12.71;100.00;99612.50;5347377;27;20046;-78
2022/11/23 11:21:53;;;;;;;7.38;2.10;;;;;;;11.61;100.00;99605.06;5347094;27;20076;-77
2022/11/23 11:24:50;;;;;;;6.30;2.20;;;;;;;11.41;100.00;99584.16;5347319;27;20039;-77
2022/11/23 11:27:23;;;;;;;7.38;1.40;;;;;;;11.06;100.00;99588.22;5342424;27;20047;-77
2022/11/23 11:30:02;;;;;;;8.82;2.78;;;;;;;11.08;100.00;99568.38;5346744;27;20055;-77
2022/11/23 11:33:02;;;;;;;8.95;1.83;;;;;;;12.03;100.00;99577.81;5348031;27;20346;-77
2022/11/23 11:35:41;;;;;;;8.02;2.05;;;;;;;13.04;100.00;99571.88;5346845;27;20023;-77
2022/11/23 11:38:33;;;;;;;7.45;1.52;;;;;;;14.37;100.00;99575.72;5346988;27;20038;-77
2022/11/23 11:41:09;;;;;;;4.78;1.52;;;;;;;15.08;100.00;99555.75;5341227;27;20107;-78
2022/11/23 11:43:48;;;;;;;8.18;1.55;;;;;;;14.79;100.00;99548.03;5342271;27;20507;-77
2022/11/23 11:46:30;;;;;;;4.93;1.40;;;;;;;15.84;100.00;99534.97;5347035;27;20093;-78
2022/11/23 11:49:13;;;;;;;4.65;1.60;;;;;;;16.32;100.00;99556.19;5346062;27;20019;-78
2022/11/23 11:51:49;;;;;;;4.40;1.30;;;;;;;15.76;100.00;99537.84;5347689;27;20094;-78
2022/11/23 11:54:23;;;;;;;8.50;1.42;;;;;;;16.40;100.00;99534.41;5347012;27;20042;-78
2022/11/23 11:57:02;;;;;;;5.70;1.77;;;;;;;16.67;100.00;99526.22;5346371;27;20464;-78
2022/11/23 11:59:42;;;;;;;3.72;1.10;;;;;;;17.54;100.00;99529.22;5345253;27;20106;-78
2022/11/23 12:02:24;;;;;;;3.65;1.10;;;;;;;17.11;100.00;99529.13;5325445;28;20020;-78
2022/11/23 12:04:55;;;;;;;4.53;1.33;;;;;;;16.76;100.00;99537.56;5309920;27;20049;-76
2022/11/23 12:07:37;;;;;;;3.65;1.08;;;;;;;16.36;100.00;99537.75;5296700;28;20031;-77
2022/11/23 12:10:22;;;;;;;4.43;1.40;;;;;;;16.43;100.00;99523.22;5306854;28;20065;-77
2022/11/23 12:12:55;;;;;;;3.90;1.35;;;;;;;16.63;100.00;99514.25;5306469;28;20024;-77
2022/11/23 12:15:45;;;;;;;5.00;1.27;;;;;;;16.69;100.00;99524.16;5325788;28;20024;-77
2022/11/23 12:18:49;;;;;;;5.88;1.60;;;;;;;16.16;100.00;99517.09;5306081;28;20024;-77
2022/11/23 12:21:38;;;;;;;5.03;1.40;;;;;;;16.59;100.00;99524.59;5325754;28;20034;-77
2022/11/23 12:24:29;;;;;;;3.00;1.27;;;;;;;15.79;100.00;99516.75;5325513;28;20028;-77
2022/11/23 12:27:18;;;;;;;5.25;1.58;;;;;;;16.36;100.00;99508.97;5309386;28;20016;-77
2022/11/23 12:30:19;;;;;;;5.53;1.17;;;;;;;16.05;100.00;99501.63;5310917;28;20028;-78
2022/11/23 12:33:11;;;;;;;4.40;1.40;;;;;;;15.31;100.00;99503.53;5328301;28;20032;-78
2022/11/23 12:36:04;;;;;;;7.47;1.55;;;;;;;14.57;100.00;99513.25;5327753;28;20036;-78
2022/11/23 12:39:00;;;;;;;4.28;1.10;;;;;;;15.39;100.00;99489.91;5328831;28;20096;-78
2022/11/23 12:41:54;;;;;;;4.50;1.25;;;;;;;15.58;100.00;99479.34;5328706;28;20016;-78
2022/11/23 12:44:51;;;;;;;6.30;1.23;;;;;;;15.50;100.00;99491.94;5309556;28;20032;-78
2022/11/23 12:47:46;;;;;;;4.20;1.48;;;;;;;16.26;100.00;99495.94;5305012;28;20059;-78
2022/11/23 12:50:54;;;;;;;3.47;1.25;;;;;;;16.24;100.00;99492.66;5306607;28;20514;-78
2022/11/23 12:53:56;;;;;;;4.35;1.10;;;;;;;15.07;100.00;99495.03;5306997;28;20393;-78